createdAt,value
2022-12-25T00:02:18.377Z,55.20
2022-12-25T00:04:45.052Z,66.47
2022-12-25T00:07:12.542Z,105.63
2022-12-25T00:09:39.126Z,99.32
2022-12-25T00:12:05.980Z,99.03
2022-12-25T00:14:32.573Z,95.95
2022-12-25T00:16:59.204Z,91.82
2022-12-25T00:19:25.827Z,94.45
2022-12-25T00:21:52.391Z,87.32
2022-12-25T00:24:18.965Z,94.55
2022-12-25T00:26:45.565Z,83.88
2022-12-25T00:29:13.255Z,76.45
2022-12-25T00:31:40.583Z,73.65
2022-12-25T00:34:07.315Z,77.80
2022-12-25T00:36:41.188Z,72.30
2022-12-25T00:39:08.483Z,70.70
2022-12-25T00:41:53.681Z,75.10
2022-12-25T00:44:20.303Z,65.93
2022-12-25T00:46:46.973Z,54.47
2022-12-25T00:49:13.682Z,51.67
2022-12-25T00:51:40.455Z,49.08
2022-12-25T00:54:07.552Z,48.90
2022-12-25T00:56:34.310Z,47.75
2022-12-25T00:59:00.974Z,51.00
2022-12-25T01:01:27.686Z,53.78
2022-12-25T01:03:55.363Z,57.65
2022-12-25T01:06:22.035Z,54.20
2022-12-25T01:09:07.240Z,53.70
2022-12-25T01:11:33.909Z,49.53
2022-12-25T01:14:00.607Z,50.30
2022-12-25T01:16:27.738Z,50.20
2022-12-25T01:18:54.686Z,49.57
2022-12-25T01:21:22.291Z,49.58
2022-12-25T01:23:50.586Z,54.42
2022-12-25T01:26:18.361Z,56.53
2022-12-25T01:28:45.005Z,65.50
2022-12-25T01:31:15.595Z,71.40
2022-12-25T01:33:44.244Z,70.22
2022-12-25T01:36:19.413Z,68.97
2022-12-25T01:38:46.445Z,73.00
2022-12-25T01:41:14.672Z,70.40
2022-12-25T01:44:02.408Z,68.57
2022-12-25T01:46:30.428Z,66.80
2022-12-25T01:51:54.597Z,64.30
2022-12-25T01:54:29.431Z,64.65
2022-12-25T01:56:59.883Z,68.28
2022-12-25T01:59:27.953Z,63.35
2022-12-25T02:04:38.945Z,70.40
2022-12-25T02:07:17.831Z,70.35
2022-12-25T02:09:45.167Z,68.10
2022-12-25T02:12:34.085Z,70.70
2022-12-25T02:15:06.157Z,65.05
2022-12-25T02:18:02.205Z,67.18
2022-12-25T02:20:31.936Z,62.95
2022-12-25T02:23:35.971Z,58.00
2022-12-25T02:26:05.332Z,58.75
2022-12-25T02:28:46.264Z,52.33
2022-12-25T02:31:40.054Z,50.28
2022-12-25T02:34:22.712Z,53.00
2022-12-25T02:36:57.592Z,55.70
2022-12-25T02:39:46.808Z,52.85
2022-12-25T02:42:46.044Z,50.65
2022-12-25T02:45:34.676Z,52.07
2022-12-25T02:48:21.007Z,53.80
2022-12-25T02:51:06.874Z,49.17
2022-12-25T02:53:53.614Z,42.92
2022-12-25T02:56:41.489Z,40.75
2022-12-25T02:59:26.801Z,37.92
2022-12-25T03:02:13.396Z,45.38
2022-12-25T03:05:00.737Z,44.38
2022-12-25T03:07:30.113Z,37.67
2022-12-25T03:10:21.671Z,37.72
2022-12-25T03:12:56.028Z,39.22
2022-12-25T03:15:41.954Z,35.13
2022-12-25T03:18:14.511Z,37.58
2022-12-25T03:21:00.191Z,40.08
2022-12-25T03:23:51.165Z,53.28
2022-12-25T03:26:36.961Z,59.30
2022-12-25T03:29:04.024Z,36.65
2022-12-25T03:31:30.566Z,41.33
2022-12-25T03:34:33.871Z,33.13
2022-12-25T03:37:36.210Z,38.72
2022-12-25T03:40:53.499Z,30.20
2022-12-25T03:43:38.387Z,29.48
2022-12-25T03:46:29.005Z,29.40
2022-12-25T03:49:23.756Z,31.95
2022-12-25T03:52:11.293Z,31.05
2022-12-25T03:54:59.819Z,31.10
2022-12-25T03:57:45.201Z,26.30
2022-12-25T04:00:30.822Z,23.55
2022-12-25T04:03:16.107Z,26.02
2022-12-25T04:06:01.000Z,27.45
2022-12-25T04:09:03.193Z,27.83
2022-12-25T04:11:48.540Z,25.65
2022-12-25T04:14:33.968Z,29.85
2022-12-25T04:17:39.002Z,30.92
2022-12-25T04:20:24.844Z,30.20
2022-12-25T04:23:10.211Z,22.65
2022-12-25T04:25:55.163Z,22.90
2022-12-25T04:28:39.967Z,21.70
2022-12-25T04:31:25.516Z,24.50
2022-12-25T04:34:10.838Z,26.50
2022-12-25T04:36:37.544Z,27.33
2022-12-25T04:39:04.214Z,26.08
2022-12-25T04:41:30.934Z,26.23
2022-12-25T04:43:57.762Z,26.05
2022-12-25T04:46:24.441Z,35.15
2022-12-25T04:48:51.084Z,34.17
2022-12-25T04:51:20.592Z,31.75
2022-12-25T04:53:48.819Z,27.83
2022-12-25T04:56:16.537Z,27.25
2022-12-25T04:58:44.539Z,25.48
2022-12-25T05:01:12.571Z,25.27
2022-12-25T05:06:07.324Z,25.80
2022-12-25T05:08:35.410Z,28.67
2022-12-25T05:13:32.857Z,42.95
2022-12-25T05:15:59.628Z,45.25
2022-12-25T05:18:26.384Z,45.00
2022-12-25T05:20:54.640Z,54.13
2022-12-25T05:23:22.362Z,39.67
2022-12-25T05:25:49.094Z,28.77
2022-12-25T05:28:15.947Z,28.55
2022-12-25T05:30:42.595Z,29.90
2022-12-25T05:33:09.240Z,44.45
2022-12-25T05:35:38.088Z,27.30
2022-12-25T05:38:06.012Z,26.50
2022-12-25T05:40:33.245Z,29.63
2022-12-25T05:42:59.928Z,37.92
2022-12-25T05:45:26.664Z,39.85
2022-12-25T05:47:53.469Z,33.58
2022-12-25T05:50:20.098Z,41.95
2022-12-25T05:52:46.821Z,71.28
2022-12-25T05:55:13.442Z,62.45
2022-12-25T05:57:41.230Z,43.17
2022-12-25T06:00:08.755Z,40.55
2022-12-25T06:02:37.263Z,33.15
2022-12-25T06:05:05.103Z,52.22
2022-12-25T06:07:31.797Z,63.80
2022-12-25T06:09:58.507Z,70.78
2022-12-25T06:12:25.136Z,43.45
2022-12-25T06:14:51.729Z,33.72
2022-12-25T06:17:18.395Z,23.55
2022-12-25T06:19:45.065Z,19.10
2022-12-25T06:22:11.750Z,19.50
2022-12-25T06:24:38.672Z,32.75
2022-12-25T06:27:05.306Z,46.35
2022-12-25T06:29:31.880Z,46.63
2022-12-25T06:31:59.099Z,40.83
2022-12-25T06:34:25.974Z,36.45
2022-12-25T06:36:53.177Z,31.63
2022-12-25T06:39:21.471Z,29.50
2022-12-25T06:41:48.606Z,26.13
2022-12-25T06:44:15.227Z,27.83
2022-12-25T06:46:41.836Z,30.63
2022-12-25T06:49:10.127Z,34.17
2022-12-25T06:51:36.709Z,78.85
2022-12-25T06:54:04.110Z,60.00
2022-12-25T06:56:32.121Z,50.63
2022-12-25T06:59:08.298Z,105.65
2022-12-25T07:01:48.925Z,70.28
2022-12-25T07:04:24.007Z,51.25
2022-12-25T07:06:50.712Z,77.95
2022-12-25T07:09:17.349Z,75.47
2022-12-25T07:11:43.997Z,58.70
2022-12-25T07:14:23.862Z,51.75
2022-12-25T07:16:51.027Z,59.47
2022-12-25T07:19:17.763Z,62.63
2022-12-25T07:21:44.347Z,63.88
2022-12-25T07:24:10.939Z,66.35
2022-12-25T07:26:37.575Z,62.60
2022-12-25T07:29:04.179Z,54.33
2022-12-25T07:31:30.777Z,45.45
2022-12-25T07:33:57.398Z,44.53
2022-12-25T07:36:24.112Z,44.83
2022-12-25T07:38:51.580Z,60.97
2022-12-25T07:41:18.208Z,43.50
2022-12-25T07:43:44.850Z,45.28
2022-12-25T07:46:11.856Z,36.97
2022-12-25T07:48:38.676Z,28.67
2022-12-25T07:51:07.845Z,23.60
2022-12-25T07:53:35.474Z,23.65
2022-12-25T07:56:07.766Z,35.10
2022-12-25T07:58:34.695Z,32.78
2022-12-25T08:01:07.747Z,29.95
2022-12-25T08:03:35.678Z,25.73
2022-12-25T08:06:04.959Z,24.35
2022-12-25T08:08:31.607Z,24.58
2022-12-25T08:10:58.353Z,22.40
2022-12-25T08:13:25.115Z,21.48
2022-12-25T08:15:58.561Z,20.67
2022-12-25T08:18:29.982Z,22.98
2022-12-25T08:20:57.241Z,25.27
2022-12-25T08:23:23.804Z,25.83
2022-12-25T08:25:50.384Z,46.78
2022-12-25T08:28:16.936Z,46.28
2022-12-25T08:30:43.678Z,58.33
2022-12-25T08:33:10.319Z,30.40
2022-12-25T08:35:37.216Z,20.52
2022-12-25T08:38:03.829Z,13.85
2022-12-25T08:40:30.386Z,14.85
2022-12-25T08:42:57.307Z,10.98
2022-12-25T08:45:27.403Z,13.75
2022-12-25T08:47:57.947Z,15.18
2022-12-25T08:50:24.992Z,13.43
2022-12-25T08:52:51.777Z,13.98
2022-12-25T08:55:18.453Z,12.98
2022-12-25T08:57:45.064Z,15.13
2022-12-25T09:00:12.115Z,15.23
2022-12-25T09:02:38.913Z,14.35
2022-12-25T09:05:06.204Z,11.57
2022-12-25T09:07:32.776Z,11.98
2022-12-25T09:09:59.383Z,16.95
2022-12-25T09:12:26.026Z,16.73
2022-12-25T09:14:52.684Z,11.57
2022-12-25T09:17:22.071Z,14.85
2022-12-25T09:19:48.668Z,13.38
2022-12-25T09:22:15.318Z,9.60
2022-12-25T09:24:43.692Z,7.97
2022-12-25T09:27:10.299Z,9.27
2022-12-25T09:29:36.926Z,9.05
2022-12-25T09:32:03.682Z,9.70
2022-12-25T09:34:30.342Z,9.50
2022-12-25T09:36:57.087Z,9.43
2022-12-25T09:39:24.823Z,8.75
2022-12-25T09:42:04.434Z,9.38
2022-12-25T09:44:55.417Z,8.93
2022-12-25T09:47:37.085Z,9.02
2022-12-25T09:50:12.755Z,8.55
2022-12-25T09:52:48.622Z,5.95
2022-12-25T09:55:24.374Z,6.95
2022-12-25T09:58:00.597Z,7.13
2022-12-25T10:00:40.720Z,6.20
2022-12-25T10:03:13.563Z,5.22
2022-12-25T10:05:55.451Z,5.15
2022-12-25T10:08:27.892Z,8.80
2022-12-25T10:11:00.516Z,6.57
2022-12-25T10:13:45.463Z,3.97
2022-12-25T10:16:21.085Z,11.77
2022-12-25T10:18:47.727Z,5.15
2022-12-25T10:21:18.335Z,5.50
2022-12-25T10:23:53.643Z,4.90
2022-12-25T10:26:22.686Z,3.58
2022-12-25T10:29:04.580Z,3.42
2022-12-25T10:31:36.186Z,4.13
2022-12-25T10:34:04.536Z,3.95
2022-12-25T10:36:31.936Z,4.15
2022-12-25T10:38:58.562Z,3.50
2022-12-25T10:42:04.241Z,3.10
2022-12-25T10:44:32.381Z,3.75
2022-12-25T10:49:46.768Z,2.97
2022-12-25T10:52:21.258Z,4.10
2022-12-25T10:54:48.006Z,5.00
2022-12-25T10:57:18.008Z,4.85
2022-12-25T10:59:48.839Z,4.32
2022-12-25T11:02:36.304Z,4.22
2022-12-25T11:05:29.612Z,3.92
2022-12-25T11:07:57.077Z,6.30
2022-12-25T11:10:32.876Z,12.23
2022-12-25T11:13:00.958Z,4.60
2022-12-25T11:15:43.353Z,3.40
2022-12-25T11:18:49.280Z,3.83
2022-12-25T11:21:26.269Z,3.70
2022-12-25T11:24:00.735Z,3.40
2022-12-25T11:26:30.281Z,3.13
2022-12-25T11:28:58.204Z,3.53
2022-12-25T11:31:40.781Z,4.07
2022-12-25T11:34:17.707Z,4.65
2022-12-25T11:36:47.195Z,4.95
2022-12-25T11:39:29.458Z,4.13
2022-12-25T11:42:26.483Z,3.65
2022-12-25T11:45:08.845Z,5.40
2022-12-25T11:48:26.293Z,5.63
2022-12-25T11:50:59.302Z,4.97
2022-12-25T11:53:35.063Z,3.67
2022-12-25T11:56:06.738Z,3.53
2022-12-25T11:58:39.142Z,4.07
2022-12-25T12:01:17.349Z,4.47
2022-12-25T12:03:44.969Z,3.72
2022-12-25T12:06:47.874Z,3.97
2022-12-25T12:09:44.185Z,3.70
2022-12-25T12:12:16.602Z,3.72
2022-12-25T12:15:08.473Z,3.70
2022-12-25T12:17:35.335Z,3.10
2022-12-25T12:20:28.746Z,4.18
2022-12-25T12:22:56.180Z,4.18
2022-12-25T12:25:23.051Z,4.35
2022-12-25T12:28:21.738Z,3.78
2022-12-25T12:31:06.999Z,4.20
2022-12-25T12:33:39.486Z,5.30
2022-12-25T12:36:09.950Z,4.38
2022-12-25T12:38:37.200Z,5.50
2022-12-25T12:41:07.161Z,4.45
2022-12-25T12:43:44.947Z,5.20
2022-12-25T12:46:24.493Z,8.27
2022-12-25T12:49:21.210Z,4.40
2022-12-25T12:51:49.287Z,3.92
2022-12-25T12:54:26.153Z,3.88
2022-12-25T12:56:55.816Z,3.65
2022-12-25T12:59:23.500Z,3.33
2022-12-25T13:02:18.862Z,4.70
2022-12-25T13:05:05.929Z,3.40
2022-12-25T13:07:53.799Z,4.75
2022-12-25T13:10:36.612Z,5.25
2022-12-25T13:13:12.731Z,4.47
2022-12-25T13:15:39.571Z,3.30
2022-12-25T13:18:10.880Z,4.43
2022-12-25T13:20:47.131Z,4.78
2022-12-25T13:23:35.122Z,3.78
2022-12-25T13:26:14.863Z,2.90
2022-12-25T13:28:41.719Z,3.40
2022-12-25T13:31:18.839Z,3.47
2022-12-25T13:33:58.078Z,3.63
2022-12-25T13:36:26.841Z,3.42
2022-12-25T13:38:57.951Z,3.78
2022-12-25T13:41:46.232Z,4.13
2022-12-25T13:44:20.801Z,5.55
2022-12-25T13:46:48.217Z,5.72
2022-12-25T13:49:20.613Z,6.25
2022-12-25T13:51:48.684Z,6.10
2022-12-25T13:54:17.409Z,5.30
2022-12-25T13:56:50.425Z,5.82
2022-12-25T13:59:21.269Z,5.20
2022-12-25T14:01:49.637Z,4.68
2022-12-25T14:04:20.138Z,4.90
2022-12-25T14:06:48.086Z,6.43
2022-12-25T14:09:15.913Z,3.88
2022-12-25T14:11:48.958Z,2.85
2022-12-25T14:14:22.083Z,2.08
2022-12-25T14:16:51.646Z,4.28
2022-12-25T14:19:33.464Z,5.45
2022-12-25T14:22:17.209Z,3.72
2022-12-25T14:24:44.074Z,4.72
2022-12-25T14:27:32.528Z,3.92
2022-12-25T14:30:00.725Z,5.75
2022-12-25T14:34:59.627Z,8.70
2022-12-25T14:37:30.900Z,14.63
2022-12-25T14:40:05.144Z,11.15
2022-12-25T14:42:36.045Z,10.93
2022-12-25T14:45:25.573Z,13.43
2022-12-25T14:50:30.724Z,13.55
2022-12-25T14:52:59.022Z,18.55
2022-12-25T14:55:28.694Z,23.73
2022-12-25T14:58:04.984Z,38.33
2022-12-25T15:00:39.834Z,21.88
2022-12-25T15:03:27.111Z,23.15
2022-12-25T15:06:19.524Z,26.75
2022-12-25T15:09:16.697Z,37.88
2022-12-25T15:11:43.595Z,35.78
2022-12-25T15:14:10.233Z,40.55
2022-12-25T15:16:50.929Z,48.90
2022-12-25T15:19:27.261Z,49.33
2022-12-25T15:21:54.556Z,46.78
2022-12-25T15:24:22.338Z,47.72
2022-12-25T15:26:48.978Z,46.80
2022-12-25T15:29:38.172Z,39.47
2022-12-25T15:32:21.318Z,38.10
2022-12-25T15:34:50.145Z,36.90
2022-12-25T15:37:18.998Z,35.20
2022-12-25T15:39:46.414Z,32.92
2022-12-25T15:42:15.388Z,15.00
2022-12-25T15:44:45.278Z,17.52
2022-12-25T15:47:14.682Z,19.85
2022-12-25T15:49:44.342Z,20.13
2022-12-25T15:52:14.348Z,22.45
2022-12-25T15:54:41.062Z,37.65
2022-12-25T15:57:19.613Z,35.70
2022-12-25T15:59:46.887Z,34.67
2022-12-25T16:02:17.689Z,37.87
2022-12-25T16:04:44.819Z,44.40
2022-12-25T16:07:19.748Z,55.28
2022-12-25T16:09:46.802Z,69.55
2022-12-25T16:12:13.503Z,75.07
2022-12-25T16:14:40.214Z,55.75
2022-12-25T16:17:07.445Z,32.88
2022-12-25T16:19:34.330Z,19.85
2022-12-25T16:22:01.000Z,41.50
2022-12-25T16:24:28.645Z,45.90
2022-12-25T16:26:55.277Z,42.15
2022-12-25T16:29:21.884Z,38.28
2022-12-25T16:31:48.565Z,27.13
2022-12-25T16:34:15.293Z,38.58
2022-12-25T16:36:41.896Z,41.90
2022-12-25T16:39:08.569Z,46.90
2022-12-25T16:41:35.205Z,48.53
2022-12-25T16:44:09.489Z,58.25
2022-12-25T16:46:37.624Z,49.80
2022-12-25T16:51:31.419Z,59.58
2022-12-25T16:53:58.561Z,37.72
2022-12-25T16:56:27.108Z,22.60
2022-12-25T16:58:55.007Z,22.17
2022-12-25T17:01:23.071Z,19.20
2022-12-25T17:06:28.309Z,31.42
2022-12-25T17:08:58.868Z,33.08
2022-12-25T17:11:29.857Z,52.30
2022-12-25T17:13:58.786Z,53.60
2022-12-25T17:16:28.170Z,48.55
2022-12-25T17:19:01.450Z,60.45
2022-12-25T17:21:28.995Z,53.78
2022-12-25T17:24:01.706Z,55.25
2022-12-25T17:26:30.862Z,54.70
2022-12-25T17:28:57.552Z,54.85
2022-12-25T17:31:24.508Z,45.88
2022-12-25T17:33:51.181Z,43.85
2022-12-25T17:36:20.190Z,16.63
2022-12-25T17:38:47.731Z,16.27
2022-12-25T17:41:16.654Z,14.80
2022-12-25T17:43:45.708Z,16.20
2022-12-25T17:46:23.810Z,13.95
2022-12-25T17:48:51.884Z,14.03
2022-12-25T17:51:21.920Z,17.42
2022-12-25T17:53:52.446Z,24.50
2022-12-25T17:56:20.773Z,27.67
2022-12-25T17:58:58.507Z,28.58
2022-12-25T18:01:27.014Z,28.52
2022-12-25T18:03:54.577Z,33.28
2022-12-25T18:06:24.443Z,35.83
2022-12-25T18:08:51.148Z,43.38
2022-12-25T18:11:20.640Z,64.18
2022-12-25T18:13:51.221Z,70.65
2022-12-25T18:16:19.570Z,68.03
2022-12-25T18:18:51.719Z,66.68
2022-12-25T18:21:20.547Z,76.78
2022-12-25T18:23:47.844Z,78.45
2022-12-25T18:26:14.942Z,80.17
2022-12-25T18:28:42.668Z,83.30
2022-12-25T18:31:21.895Z,84.68
2022-12-25T18:33:49.754Z,78.18
2022-12-25T18:36:20.326Z,77.63
2022-12-25T18:38:48.331Z,69.35
2022-12-25T18:41:15.275Z,67.43
2022-12-25T18:43:54.283Z,67.85
2022-12-25T18:46:26.702Z,56.50
2022-12-25T18:48:55.091Z,50.63
2022-12-25T18:53:48.878Z,53.92
2022-12-25T18:56:17.602Z,56.53
2022-12-25T18:58:44.719Z,54.40
2022-12-25T19:01:11.646Z,52.42
2022-12-25T19:03:38.373Z,55.38
2022-12-25T19:06:05.100Z,54.67
2022-12-25T19:08:31.807Z,56.55
2022-12-25T19:10:58.421Z,67.50
2022-12-25T19:13:25.080Z,49.08
2022-12-25T19:15:52.546Z,42.95
2022-12-25T19:18:19.193Z,42.05
2022-12-25T19:20:45.797Z,51.90
2022-12-25T19:23:12.518Z,70.32
2022-12-25T19:25:40.482Z,94.63
2022-12-25T19:28:07.053Z,90.75
2022-12-25T19:30:33.858Z,98.40
2022-12-25T19:33:00.668Z,85.03
2022-12-25T19:35:27.332Z,75.60
2022-12-25T19:37:53.982Z,64.70
2022-12-25T19:40:20.704Z,82.07
2022-12-25T19:42:47.297Z,90.00
2022-12-25T19:45:13.952Z,98.47
2022-12-25T19:47:44.257Z,103.15
2022-12-25T19:50:11.057Z,110.70
2022-12-25T19:52:37.726Z,106.97
2022-12-25T19:55:04.661Z,113.53
2022-12-25T19:57:31.296Z,100.85
2022-12-25T19:59:59.005Z,85.70
2022-12-25T20:02:25.913Z,69.47
2022-12-25T20:04:52.660Z,69.13
2022-12-25T20:07:19.373Z,89.35
2022-12-25T20:09:46.094Z,86.38
2022-12-25T20:12:15.018Z,85.90
2022-12-25T20:14:41.765Z,77.20
2022-12-25T20:17:13.689Z,74.45
2022-12-25T20:19:42.286Z,75.60
2022-12-25T20:22:08.899Z,73.97
2022-12-25T20:24:35.993Z,66.20
2022-12-25T20:27:03.208Z,66.20
2022-12-25T20:29:30.113Z,64.50
2022-12-25T20:31:56.795Z,62.53
2022-12-25T20:34:23.501Z,59.83
2022-12-25T20:36:50.226Z,60.92
2022-12-25T20:39:17.038Z,65.18
2022-12-25T20:41:43.715Z,67.45
2022-12-25T20:44:15.601Z,71.95
2022-12-25T20:46:42.751Z,58.78
2022-12-25T20:49:09.481Z,52.77
2022-12-25T20:51:36.154Z,43.30
2022-12-25T20:54:07.628Z,36.65
2022-12-25T20:56:35.302Z,31.13
2022-12-25T20:59:02.264Z,25.52
2022-12-25T21:01:30.656Z,16.17
2022-12-25T21:03:58.587Z,10.88
2022-12-25T21:06:25.260Z,15.63
2022-12-25T21:08:51.930Z,17.90
2022-12-25T21:11:18.629Z,13.32
2022-12-25T21:13:46.299Z,11.65
2022-12-25T21:16:19.062Z,11.45
2022-12-25T21:18:46.847Z,13.40
2022-12-25T21:21:14.015Z,29.25
2022-12-25T21:23:41.263Z,33.47
2022-12-25T21:26:19.096Z,33.15
2022-12-25T21:28:47.681Z,90.00
2022-12-25T21:31:14.624Z,56.83
2022-12-25T21:33:53.785Z,48.35
2022-12-25T21:36:27.295Z,35.00
2022-12-25T21:39:06.470Z,86.75
2022-12-25T21:41:35.028Z,59.00
2022-12-25T21:44:02.011Z,47.47
2022-12-25T21:46:29.429Z,49.72
2022-12-25T21:48:57.045Z,35.28
2022-12-25T21:51:45.339Z,31.23
2022-12-25T21:54:13.411Z,27.02
2022-12-25T21:59:15.853Z,18.60
2022-12-25T22:01:42.943Z,19.88
2022-12-25T22:04:10.059Z,28.30
2022-12-25T22:06:55.290Z,27.13
2022-12-25T22:09:22.728Z,19.77
2022-12-25T22:12:07.933Z,18.90
2022-12-25T22:14:57.357Z,19.08
2022-12-25T22:17:45.658Z,19.30
2022-12-25T22:20:16.188Z,22.75
2022-12-25T22:22:43.484Z,26.33
2022-12-25T22:25:11.015Z,33.58
2022-12-25T22:27:39.194Z,35.33
2022-12-25T22:32:34.923Z,35.25
2022-12-25T22:35:01.803Z,39.90
2022-12-25T22:37:28.629Z,34.55
2022-12-25T22:39:55.407Z,31.30
2022-12-25T22:42:22.399Z,29.83
2022-12-25T22:44:49.283Z,32.30
2022-12-25T22:47:15.901Z,36.90
2022-12-25T22:49:42.479Z,43.85
2022-12-25T22:52:09.950Z,46.15
2022-12-25T22:54:36.686Z,38.70
2022-12-25T22:57:04.100Z,33.70
2022-12-25T22:59:32.845Z,28.17
2022-12-25T23:02:00.872Z,20.98
2022-12-25T23:04:28.566Z,18.95
2022-12-25T23:06:55.624Z,19.30
2022-12-25T23:09:27.696Z,17.92
2022-12-25T23:11:56.485Z,18.77
2022-12-25T23:14:39.910Z,19.35
2022-12-25T23:17:32.683Z,25.75
2022-12-25T23:20:19.125Z,28.63
2022-12-25T23:23:04.875Z,27.55
2022-12-25T23:25:49.993Z,28.00
2022-12-25T23:28:36.651Z,22.23
2022-12-25T23:31:03.492Z,26.58
2022-12-25T23:33:30.507Z,29.73
2022-12-25T23:35:57.152Z,36.92
2022-12-25T23:38:23.735Z,45.10
2022-12-25T23:40:50.338Z,43.05
2022-12-25T23:43:17.073Z,39.10
2022-12-25T23:45:43.701Z,38.10
2022-12-25T23:48:10.318Z,33.80
2022-12-25T23:50:37.178Z,33.15
2022-12-25T23:53:03.816Z,27.60
2022-12-25T23:55:30.475Z,22.10
2022-12-25T23:57:57.122Z,21.80
